createdAt,value
2022-12-18T00:02:08.172Z,6.62
2022-12-18T00:04:34.868Z,6.66
2022-12-18T00:07:01.629Z,6.81
2022-12-18T00:09:31.316Z,6.68
2022-12-18T00:14:43.126Z,6.91
2022-12-18T00:17:10.126Z,6.78
2022-12-18T00:19:36.836Z,6.67
2022-12-18T00:22:03.585Z,6.64
2022-12-18T00:24:30.300Z,6.61
2022-12-18T00:26:57.004Z,6.71
2022-12-18T00:29:23.608Z,6.59
2022-12-18T00:31:50.426Z,6.47
2022-12-18T00:34:17.153Z,6.78
2022-12-18T00:36:43.825Z,6.68
2022-12-18T00:39:11.113Z,6.70
2022-12-18T00:41:56.212Z,6.86
2022-12-18T00:44:22.828Z,6.94
2022-12-18T00:46:49.716Z,6.75
2022-12-18T00:49:17.773Z,6.95
2022-12-18T00:51:44.462Z,7.01
2022-12-18T00:54:11.380Z,6.93
2022-12-18T00:56:48.021Z,7.01
2022-12-18T00:59:15.873Z,7.02
2022-12-18T01:01:42.741Z,6.83
2022-12-18T01:04:09.476Z,6.73
2022-12-18T01:06:36.073Z,6.96
2022-12-18T01:09:03.330Z,7.10
2022-12-18T01:11:30.135Z,7.20
2022-12-18T01:13:56.885Z,7.20
2022-12-18T01:16:23.767Z,7.34
2022-12-18T01:18:53.812Z,7.32
2022-12-18T01:21:20.542Z,7.39
2022-12-18T01:23:47.568Z,7.32
2022-12-18T01:26:15.734Z,7.34
2022-12-18T01:28:42.712Z,7.22
2022-12-18T01:31:27.294Z,7.30
2022-12-18T01:33:54.058Z,7.36
2022-12-18T01:36:30.427Z,7.39
2022-12-18T01:38:57.133Z,7.58
2022-12-18T01:41:25.596Z,7.49
2022-12-18T01:43:54.722Z,7.65
2022-12-18T01:46:22.817Z,7.61
2022-12-18T01:48:51.178Z,7.64
2022-12-18T01:51:17.930Z,7.68
2022-12-18T01:53:45.009Z,7.62
2022-12-18T01:56:14.539Z,7.59
2022-12-18T01:58:52.134Z,7.85
2022-12-18T02:01:19.234Z,7.81
2022-12-18T02:03:46.260Z,7.67
2022-12-18T02:06:27.867Z,7.75
2022-12-18T02:09:09.594Z,7.70
2022-12-18T02:12:08.658Z,7.56
2022-12-18T02:15:01.303Z,7.48
2022-12-18T02:17:38.337Z,7.57
2022-12-18T02:20:16.429Z,7.58
2022-12-18T02:23:24.549Z,7.61
2022-12-18T02:26:03.338Z,7.45
2022-12-18T02:28:32.298Z,7.24
2022-12-18T02:31:00.631Z,7.35
2022-12-18T02:33:28.330Z,7.30
2022-12-18T02:35:55.005Z,7.39
2022-12-18T02:38:21.795Z,7.47
2022-12-18T02:40:48.483Z,7.39
2022-12-18T02:43:16.096Z,7.33
2022-12-18T02:45:57.145Z,7.32
2022-12-18T02:48:25.471Z,7.22
2022-12-18T02:51:09.525Z,7.22
2022-12-18T02:53:46.586Z,7.11
2022-12-18T02:56:29.968Z,7.05
2022-12-18T02:59:00.670Z,7.07
2022-12-18T03:01:49.120Z,7.11
2022-12-18T03:04:19.258Z,7.06
2022-12-18T03:06:48.784Z,7.11
2022-12-18T03:09:20.857Z,6.99
2022-12-18T03:12:08.001Z,7.07
2022-12-18T03:14:34.925Z,6.93
2022-12-18T03:17:04.608Z,6.90
2022-12-18T03:19:33.105Z,6.99
2022-12-18T03:22:00.429Z,6.82
2022-12-18T03:24:27.787Z,6.79
2022-12-18T03:26:56.224Z,6.88
2022-12-18T03:29:25.792Z,7.01
2022-12-18T03:31:56.993Z,6.88
2022-12-18T03:34:26.514Z,7.06
2022-12-18T03:36:53.202Z,6.89
2022-12-18T03:39:20.409Z,6.79
2022-12-18T03:42:22.841Z,6.91
2022-12-18T03:45:23.351Z,6.76
2022-12-18T03:47:59.067Z,6.72
2022-12-18T03:50:58.516Z,6.72
2022-12-18T03:53:37.584Z,6.76
2022-12-18T03:56:05.019Z,6.66
2022-12-18T03:58:31.806Z,6.40
2022-12-18T04:01:00.848Z,6.37
2022-12-18T04:03:27.973Z,6.65
2022-12-18T04:05:55.394Z,6.51
2022-12-18T04:08:22.344Z,6.47
2022-12-18T04:10:49.009Z,6.53
2022-12-18T04:13:25.855Z,6.53
2022-12-18T04:15:52.555Z,6.55
2022-12-18T04:18:19.169Z,6.43
2022-12-18T04:20:45.853Z,6.29
2022-12-18T04:23:12.569Z,6.36
2022-12-18T04:25:39.243Z,6.18
2022-12-18T04:28:06.211Z,6.22
2022-12-18T04:30:32.897Z,6.09
2022-12-18T04:32:59.522Z,6.17
2022-12-18T04:35:26.210Z,6.12
2022-12-18T04:37:52.875Z,5.97
2022-12-18T04:40:19.532Z,6.04
2022-12-18T04:42:46.246Z,5.83
2022-12-18T04:45:12.869Z,6.01
2022-12-18T04:47:39.898Z,6.06
2022-12-18T04:50:07.115Z,5.95
2022-12-18T04:52:33.691Z,6.01
2022-12-18T04:55:00.385Z,6.04
2022-12-18T04:57:27.191Z,5.98
2022-12-18T04:59:53.882Z,6.01
2022-12-18T05:02:20.526Z,6.00
2022-12-18T05:04:47.228Z,6.09
2022-12-18T05:07:13.877Z,6.20
2022-12-18T05:09:40.582Z,6.27
2022-12-18T05:12:08.356Z,6.25
2022-12-18T05:14:34.985Z,6.26
2022-12-18T05:17:01.612Z,6.33
2022-12-18T05:19:28.265Z,6.25
2022-12-18T05:21:54.889Z,6.07
2022-12-18T05:24:21.518Z,6.26
2022-12-18T05:26:48.281Z,6.12
2022-12-18T05:29:15.021Z,6.02
2022-12-18T05:31:41.696Z,6.12
2022-12-18T05:34:09.557Z,6.20
2022-12-18T05:36:37.300Z,6.08
2022-12-18T05:39:04.132Z,6.09
2022-12-18T05:41:31.089Z,6.05
2022-12-18T05:43:57.739Z,6.13
2022-12-18T05:46:25.327Z,6.14
2022-12-18T05:48:52.281Z,6.20
2022-12-18T05:51:21.063Z,6.07
2022-12-18T05:53:47.933Z,6.16
2022-12-18T05:56:16.842Z,6.06
2022-12-18T05:58:43.584Z,6.05
2022-12-18T06:01:15.202Z,6.03
2022-12-18T06:03:42.282Z,5.98
2022-12-18T06:06:16.152Z,6.00
2022-12-18T06:08:46.386Z,5.95
2022-12-18T06:11:14.147Z,5.93
2022-12-18T06:13:41.092Z,5.77
2022-12-18T06:16:07.956Z,5.79
2022-12-18T06:18:34.689Z,5.87
2022-12-18T06:21:01.542Z,5.92
2022-12-18T06:23:28.247Z,5.87
2022-12-18T06:25:54.835Z,5.81
2022-12-18T06:28:21.528Z,5.83
2022-12-18T06:30:49.216Z,5.92
2022-12-18T06:33:16.309Z,5.78
2022-12-18T06:35:42.999Z,5.82
2022-12-18T06:38:09.641Z,5.80
2022-12-18T06:40:38.372Z,5.83
2022-12-18T06:43:04.973Z,5.85
2022-12-18T06:45:31.762Z,5.89
2022-12-18T06:47:58.504Z,6.07
2022-12-18T06:50:25.844Z,5.95
2022-12-18T06:52:52.588Z,5.91
2022-12-18T06:55:19.438Z,5.72
2022-12-18T06:57:46.049Z,5.77
2022-12-18T07:00:12.963Z,5.79
2022-12-18T07:02:39.811Z,5.75
2022-12-18T07:05:10.701Z,5.77
2022-12-18T07:07:38.024Z,5.78
2022-12-18T07:10:05.021Z,5.84
2022-12-18T07:12:31.702Z,5.74
2022-12-18T07:14:58.424Z,5.67
2022-12-18T07:17:26.061Z,5.71
2022-12-18T07:19:52.735Z,5.79
2022-12-18T07:22:19.301Z,5.73
2022-12-18T07:24:45.939Z,5.75
2022-12-18T07:27:12.537Z,5.90
2022-12-18T07:29:39.262Z,5.92
2022-12-18T07:32:06.465Z,5.87
2022-12-18T07:34:33.207Z,5.87
2022-12-18T07:36:59.886Z,5.80
2022-12-18T07:39:26.717Z,5.72
2022-12-18T07:42:11.809Z,5.71
2022-12-18T07:44:38.584Z,5.74
2022-12-18T07:47:09.162Z,5.84
2022-12-18T07:49:38.586Z,5.82
2022-12-18T07:52:05.357Z,5.75
2022-12-18T07:54:31.981Z,5.77
2022-12-18T07:56:58.722Z,5.69
2022-12-18T07:59:25.360Z,5.74
2022-12-18T08:01:52.112Z,5.88
2022-12-18T08:04:18.905Z,5.82
2022-12-18T08:06:47.957Z,5.90
2022-12-18T08:09:17.054Z,5.90
2022-12-18T08:11:46.325Z,5.90
2022-12-18T08:14:13.019Z,5.81
2022-12-18T08:16:39.886Z,5.96
2022-12-18T08:19:06.514Z,5.87
2022-12-18T08:21:33.248Z,5.97
2022-12-18T08:24:01.089Z,6.19
2022-12-18T08:26:29.035Z,5.91
2022-12-18T08:28:56.517Z,5.95
2022-12-18T08:31:23.529Z,5.98
2022-12-18T08:33:52.189Z,6.01
2022-12-18T08:36:19.121Z,6.09
2022-12-18T08:38:45.894Z,5.94
2022-12-18T08:41:13.723Z,6.04
2022-12-18T08:43:59.208Z,6.11
2022-12-18T08:46:26.643Z,6.26
2022-12-18T08:48:53.814Z,6.21
2022-12-18T08:51:20.598Z,6.27
2022-12-18T08:53:47.303Z,6.18
2022-12-18T08:56:14.115Z,6.24
2022-12-18T08:58:41.263Z,6.28
2022-12-18T09:01:13.104Z,6.59
2022-12-18T09:03:40.374Z,6.44
2022-12-18T09:06:07.597Z,6.44
2022-12-18T09:08:35.760Z,6.54
2022-12-18T09:11:02.706Z,6.42
2022-12-18T09:13:29.676Z,6.48
2022-12-18T09:15:56.720Z,6.56
2022-12-18T09:18:23.837Z,6.82
2022-12-18T09:20:52.802Z,6.86
2022-12-18T09:23:19.553Z,6.63
2022-12-18T09:25:46.233Z,6.62
2022-12-18T09:28:14.421Z,6.60
2022-12-18T09:30:46.127Z,6.60
2022-12-18T09:33:12.976Z,6.47
2022-12-18T09:35:40.392Z,6.70
2022-12-18T09:38:07.216Z,6.47
2022-12-18T09:40:44.803Z,6.50
2022-12-18T09:43:23.444Z,6.67
2022-12-18T09:45:55.065Z,7.02
2022-12-18T09:48:45.533Z,6.79
2022-12-18T09:51:30.583Z,6.96
2022-12-18T09:54:00.101Z,7.03
2022-12-18T09:56:28.211Z,6.84
2022-12-18T09:58:58.427Z,7.15
2022-12-18T10:01:26.996Z,7.00
2022-12-18T10:03:55.798Z,6.98
2022-12-18T10:06:43.988Z,7.10
2022-12-18T10:09:37.893Z,7.10
2022-12-18T10:12:14.891Z,6.95
2022-12-18T10:14:51.861Z,6.88
2022-12-18T10:17:39.955Z,6.71
2022-12-18T10:20:23.439Z,6.74
2022-12-18T10:23:02.681Z,6.88
2022-12-18T10:25:50.172Z,6.77
2022-12-18T10:28:17.438Z,6.80
2022-12-18T10:30:44.274Z,6.75
2022-12-18T10:33:23.838Z,6.71
2022-12-18T10:35:51.579Z,6.62
2022-12-18T10:38:18.128Z,6.68
2022-12-18T10:41:00.015Z,6.75
2022-12-18T10:43:27.681Z,6.65
2022-12-18T10:46:22.445Z,6.74
2022-12-18T10:48:49.238Z,6.58
2022-12-18T10:51:31.879Z,6.61
2022-12-18T10:54:01.575Z,6.62
2022-12-18T10:56:30.031Z,6.78
2022-12-18T10:58:58.741Z,6.75
2022-12-18T11:01:25.616Z,6.62
2022-12-18T11:04:00.319Z,6.70
2022-12-18T11:06:28.622Z,6.87
2022-12-18T11:09:06.549Z,6.79
2022-12-18T11:11:36.808Z,6.65
2022-12-18T11:14:07.700Z,6.77
2022-12-18T11:16:36.793Z,6.97
2022-12-18T11:19:36.636Z,6.98
2022-12-18T11:22:19.696Z,6.84
2022-12-18T11:28:05.158Z,6.87
2022-12-18T11:30:32.475Z,7.10
2022-12-18T11:33:30.415Z,7.04
2022-12-18T11:35:58.774Z,6.88
2022-12-18T11:38:26.520Z,7.01
2022-12-18T11:40:57.787Z,7.08
2022-12-18T11:43:29.306Z,6.97
2022-12-18T11:46:00.589Z,6.89
2022-12-18T11:48:30.125Z,6.97
2022-12-18T11:50:57.779Z,6.86
2022-12-18T11:53:25.496Z,6.74
2022-12-18T11:56:03.582Z,6.72
2022-12-18T11:58:50.765Z,6.62
2022-12-18T12:01:40.508Z,6.42
2022-12-18T12:04:19.160Z,6.62
2022-12-18T12:07:03.050Z,6.56
2022-12-18T12:09:36.329Z,6.39
2022-12-18T12:12:24.297Z,6.38
2022-12-18T12:15:19.713Z,6.34
2022-12-18T12:17:58.148Z,6.47
2022-12-18T12:20:27.663Z,6.37
2022-12-18T12:22:59.881Z,6.51
2022-12-18T12:25:41.721Z,6.54
2022-12-18T12:28:31.815Z,6.42
2022-12-18T12:31:02.048Z,6.44
2022-12-18T12:33:54.888Z,6.30
2022-12-18T12:36:27.201Z,6.23
2022-12-18T12:38:56.257Z,6.40
2022-12-18T12:41:45.449Z,6.54
2022-12-18T12:44:18.242Z,6.49
2022-12-18T12:46:45.326Z,6.61
2022-12-18T12:49:27.578Z,6.64
2022-12-18T12:52:07.261Z,6.59
2022-12-18T12:54:34.664Z,6.54
2022-12-18T12:57:01.242Z,6.43
2022-12-18T12:59:49.206Z,6.44
2022-12-18T13:02:26.315Z,6.65
2022-12-18T13:05:20.275Z,6.73
2022-12-18T13:07:51.504Z,6.77
2022-12-18T13:10:19.166Z,6.54
2022-12-18T13:12:58.553Z,6.64
2022-12-18T13:15:46.240Z,6.65
2022-12-18T13:18:23.746Z,6.59
2022-12-18T13:21:02.998Z,6.50
2022-12-18T13:23:35.461Z,6.47
2022-12-18T13:26:11.313Z,6.06
2022-12-18T13:28:47.046Z,6.22
2022-12-18T13:31:33.252Z,6.32
2022-12-18T13:34:27.413Z,6.36
2022-12-18T13:36:55.923Z,6.38
2022-12-18T13:39:40.830Z,6.54
2022-12-18T13:42:07.416Z,6.46
2022-12-18T13:44:41.199Z,6.35
2022-12-18T13:47:33.842Z,6.02
2022-12-18T13:50:00.885Z,6.08
2022-12-18T13:52:34.854Z,6.22
2022-12-18T13:55:02.561Z,6.19
2022-12-18T13:57:32.228Z,6.03
2022-12-18T13:59:59.166Z,6.02
2022-12-18T14:02:29.454Z,5.93
2022-12-18T14:04:56.403Z,5.80
2022-12-18T14:07:24.733Z,5.87
2022-12-18T14:10:06.408Z,6.11
2022-12-18T14:13:01.131Z,6.08
2022-12-18T14:15:32.943Z,6.18
2022-12-18T14:18:01.885Z,6.17
2022-12-18T14:20:29.516Z,6.15
2022-12-18T14:22:57.308Z,6.09
2022-12-18T14:25:29.109Z,6.17
2022-12-18T14:28:08.437Z,5.95
2022-12-18T14:30:42.259Z,6.14
2022-12-18T14:33:12.799Z,5.93
2022-12-18T14:36:03.995Z,5.96
2022-12-18T14:38:33.604Z,5.94
2022-12-18T14:41:04.929Z,5.83
2022-12-18T14:43:39.186Z,6.01
2022-12-18T14:46:07.183Z,5.89
2022-12-18T14:48:41.986Z,5.94
2022-12-18T14:51:11.577Z,6.00
2022-12-18T14:53:39.606Z,6.08
2022-12-18T14:56:26.749Z,6.14
2022-12-18T14:59:00.501Z,6.02
2022-12-18T15:01:29.523Z,6.16
2022-12-18T15:03:56.911Z,5.90
2022-12-18T15:06:35.162Z,5.87
2022-12-18T15:09:04.344Z,5.93
2022-12-18T15:11:35.850Z,5.83
2022-12-18T15:14:23.074Z,5.91
2022-12-18T15:16:55.952Z,5.87
2022-12-18T15:19:23.561Z,5.86
2022-12-18T15:21:50.438Z,5.85
2022-12-18T15:24:25.650Z,5.94
2022-12-18T15:26:52.290Z,5.98
2022-12-18T15:29:21.761Z,5.97
2022-12-18T15:32:11.781Z,5.92
2022-12-18T15:34:38.362Z,5.78
2022-12-18T15:37:05.179Z,5.72
2022-12-18T15:39:31.981Z,5.67
2022-12-18T15:42:17.127Z,5.80
2022-12-18T15:44:44.361Z,5.76
2022-12-18T15:47:13.056Z,5.83
2022-12-18T15:49:40.260Z,5.78
2022-12-18T15:52:07.074Z,5.81
2022-12-18T15:54:52.269Z,5.70
2022-12-18T15:57:24.956Z,5.75
2022-12-18T15:59:53.705Z,5.73
2022-12-18T16:02:20.869Z,5.70
2022-12-18T16:04:47.628Z,5.67
2022-12-18T16:07:15.811Z,5.66
2022-12-18T16:09:49.239Z,5.53
2022-12-18T16:12:24.978Z,5.59
2022-12-18T16:14:51.726Z,5.55
2022-12-18T16:17:18.640Z,5.43
2022-12-18T16:19:45.465Z,5.29
2022-12-18T16:22:23.225Z,5.31
2022-12-18T16:24:50.803Z,5.42
2022-12-18T16:27:17.609Z,5.27
2022-12-18T16:29:44.337Z,5.09
2022-12-18T16:32:16.786Z,5.05
2022-12-18T16:34:44.563Z,5.10
2022-12-18T16:37:12.383Z,5.10
2022-12-18T16:39:39.396Z,5.11
2022-12-18T16:42:10.057Z,5.05
2022-12-18T16:44:36.765Z,5.14
2022-12-18T16:47:04.385Z,5.00
2022-12-18T16:49:31.513Z,4.89
2022-12-18T16:51:58.157Z,4.95
2022-12-18T16:54:25.060Z,5.04
2022-12-18T16:56:52.415Z,4.93
2022-12-18T16:59:19.184Z,4.93
2022-12-18T17:01:46.672Z,4.93
2022-12-18T17:04:13.434Z,4.89
2022-12-18T17:06:41.589Z,4.96
2022-12-18T17:09:10.929Z,5.13
2022-12-18T17:11:37.653Z,5.09
2022-12-18T17:14:08.170Z,5.12
2022-12-18T17:16:35.744Z,5.15
2022-12-18T17:19:04.009Z,5.05
2022-12-18T17:21:30.744Z,5.15
2022-12-18T17:24:00.325Z,5.03
2022-12-18T17:26:26.987Z,5.06
2022-12-18T17:28:53.742Z,5.08
2022-12-18T17:31:21.751Z,5.17
2022-12-18T17:33:48.827Z,5.16
2022-12-18T17:36:15.825Z,5.04
2022-12-18T17:38:42.479Z,5.09
2022-12-18T17:41:10.469Z,5.05
2022-12-18T17:43:39.578Z,4.99
2022-12-18T17:46:06.654Z,4.85
2022-12-18T17:48:34.942Z,4.92
2022-12-18T17:51:05.530Z,5.01
2022-12-18T17:53:32.334Z,5.14
2022-12-18T17:56:01.470Z,4.97
2022-12-18T17:58:28.849Z,4.93
2022-12-18T18:00:55.544Z,4.92
2022-12-18T18:03:22.322Z,4.88
2022-12-18T18:05:49.230Z,4.87
2022-12-18T18:08:15.794Z,4.77
2022-12-18T18:10:42.420Z,4.61
2022-12-18T18:13:46.929Z,4.63
2022-12-18T18:16:13.977Z,4.65
2022-12-18T18:18:40.768Z,4.51
2022-12-18T18:21:07.968Z,4.62
2022-12-18T18:23:35.225Z,4.70
2022-12-18T18:26:05.948Z,4.77
2022-12-18T18:28:32.977Z,4.65
2022-12-18T18:31:07.258Z,4.60
2022-12-18T18:33:34.241Z,4.77
2022-12-18T18:36:00.916Z,4.69
2022-12-18T18:38:28.178Z,4.76
2022-12-18T18:41:02.584Z,4.66
2022-12-18T18:43:29.417Z,4.54
2022-12-18T18:45:57.136Z,4.65
2022-12-18T18:48:23.831Z,4.58
2022-12-18T18:50:58.230Z,4.49
2022-12-18T18:53:24.997Z,4.46
2022-12-18T18:56:10.197Z,4.33
2022-12-18T18:58:38.374Z,4.43
2022-12-18T19:01:07.475Z,4.25
2022-12-18T19:03:35.758Z,4.42
2022-12-18T19:06:02.382Z,4.42
2022-12-18T19:08:30.379Z,4.37
2022-12-18T19:10:58.382Z,4.36
2022-12-18T19:13:26.762Z,4.42
2022-12-18T19:16:05.809Z,4.39
2022-12-18T19:18:33.359Z,4.55
2022-12-18T19:21:04.073Z,4.41
2022-12-18T19:23:30.960Z,4.34
2022-12-18T19:26:26.964Z,4.59
2022-12-18T19:28:48.534Z,4.45
2022-12-18T19:31:19.980Z,4.29
2022-12-18T19:33:49.600Z,4.36
2022-12-18T19:36:19.191Z,4.34
2022-12-18T19:38:46.334Z,4.41
2022-12-18T19:41:13.380Z,4.41
2022-12-18T19:43:40.678Z,4.27
2022-12-18T19:46:07.849Z,4.22
2022-12-18T19:48:34.538Z,4.36
2022-12-18T19:51:06.393Z,4.48
2022-12-18T19:53:33.161Z,4.44
2022-12-18T19:56:04.510Z,4.31
2022-12-18T19:58:31.139Z,4.29
2022-12-18T20:00:57.922Z,4.32
2022-12-18T20:03:31.860Z,4.42
2022-12-18T20:06:16.057Z,4.42
2022-12-18T20:08:42.703Z,4.30
2022-12-18T20:11:09.277Z,4.32
2022-12-18T20:13:35.977Z,4.32
2022-12-18T20:16:02.724Z,4.31
2022-12-18T20:18:29.301Z,4.33
2022-12-18T20:20:56.370Z,4.35
2022-12-18T20:23:25.205Z,4.48
2022-12-18T20:25:55.770Z,4.30
2022-12-18T20:28:23.074Z,4.37
2022-12-18T20:30:49.770Z,4.28
2022-12-18T20:33:16.665Z,4.20
2022-12-18T20:35:43.332Z,4.16
2022-12-18T20:38:10.630Z,4.24
2022-12-18T20:40:41.426Z,4.23
2022-12-18T20:43:10.363Z,4.24
2022-12-18T20:45:40.592Z,4.18
2022-12-18T20:48:09.329Z,4.15
2022-12-18T20:50:36.399Z,4.27
2022-12-18T20:53:03.269Z,4.17
2022-12-18T20:55:30.064Z,4.17
2022-12-18T20:57:56.766Z,4.08
2022-12-18T21:00:23.370Z,4.06
2022-12-18T21:02:50.250Z,3.95
2022-12-18T21:05:17.258Z,3.90
2022-12-18T21:07:44.005Z,3.92
2022-12-18T21:10:10.865Z,3.85
2022-12-18T21:12:50.864Z,3.89
2022-12-18T21:15:28.771Z,3.87
2022-12-18T21:17:55.830Z,3.79
2022-12-18T21:20:22.440Z,3.71
2022-12-18T21:22:49.513Z,3.79
2022-12-18T21:25:16.353Z,3.72
2022-12-18T21:27:43.018Z,3.79
2022-12-18T21:30:09.893Z,3.61
2022-12-18T21:32:36.689Z,3.62
2022-12-18T21:35:03.717Z,3.46
2022-12-18T21:37:30.416Z,3.40
2022-12-18T21:39:57.043Z,3.36
2022-12-18T21:42:42.284Z,3.23
2022-12-18T21:45:09.267Z,3.23
2022-12-18T21:47:35.912Z,3.32
2022-12-18T21:50:02.529Z,3.42
2022-12-18T21:52:32.017Z,3.23
2022-12-18T21:55:08.592Z,3.27
2022-12-18T21:57:36.726Z,3.28
2022-12-18T22:00:04.631Z,3.30
2022-12-18T22:02:31.843Z,3.12
2022-12-18T22:04:58.613Z,3.05
2022-12-18T22:07:25.554Z,3.09
2022-12-18T22:09:52.238Z,2.88
2022-12-18T22:12:35.697Z,2.88
2022-12-18T22:15:09.118Z,2.91
2022-12-18T22:17:35.746Z,2.97
2022-12-18T22:20:02.498Z,2.88
2022-12-18T22:22:29.132Z,2.76
2022-12-18T22:24:55.850Z,2.80
2022-12-18T22:27:22.597Z,2.86
2022-12-18T22:30:04.436Z,2.67
2022-12-18T22:32:35.056Z,2.45
2022-12-18T22:35:07.241Z,2.37
2022-12-18T22:37:36.004Z,2.60
2022-12-18T22:40:05.492Z,2.45
2022-12-18T22:42:32.742Z,2.46
2022-12-18T22:45:00.457Z,2.54
2022-12-18T22:47:30.060Z,2.42
2022-12-18T22:49:57.494Z,2.37
2022-12-18T22:52:25.016Z,2.25
2022-12-18T22:54:53.290Z,2.23
2022-12-18T22:57:21.673Z,2.17
2022-12-18T22:59:49.187Z,1.97
2022-12-18T23:02:15.945Z,2.20
2022-12-18T23:04:42.659Z,1.85
2022-12-18T23:07:09.323Z,1.79
2022-12-18T23:09:37.913Z,1.75
2022-12-18T23:12:04.933Z,1.82
2022-12-18T23:14:31.885Z,1.86
2022-12-18T23:16:58.604Z,1.86
2022-12-18T23:19:25.396Z,1.85
2022-12-18T23:21:52.106Z,1.67
2022-12-18T23:24:21.103Z,2.06
2022-12-18T23:26:47.761Z,2.12
2022-12-18T23:29:14.447Z,2.06
2022-12-18T23:31:41.291Z,1.95
2022-12-18T23:34:08.111Z,1.77
2022-12-18T23:36:45.637Z,1.78
2022-12-18T23:39:28.080Z,1.87
2022-12-18T23:41:59.964Z,1.91
2022-12-18T23:44:26.602Z,1.98
2022-12-18T23:46:53.331Z,1.90
2022-12-18T23:49:20.166Z,1.92
2022-12-18T23:51:46.845Z,1.93
2022-12-18T23:54:13.420Z,1.80
2022-12-18T23:56:40.076Z,1.94
2022-12-18T23:59:06.808Z,1.92
